sensor_id;sensor_type;location;lat;lon;timestamp;P1;durP1;ratioP1;P2;durP2;ratioP2
10463;SDS011;5279;42.048;24.638;2024-02-21T00:02:06;30.97;;;18.33;;
10463;SDS011;5279;42.048;24.638;2024-02-21T00:04:33;24.20;;;18.03;;
10463;SDS011;5279;42.048;24.638;2024-02-21T00:07:00;23.20;;;15.67;;
10463;SDS011;5279;42.048;24.638;2024-02-21T00:09:27;19.17;;;15.23;;
10463;SDS011;5279;42.048;24.638;2024-02-21T00:11:53;21.03;;;15.80;;
10463;SDS011;5279;42.048;24.638;2024-02-21T00:14:20;21.00;;;16.53;;
10463;SDS011;5279;42.048;24.638;2024-02-21T00:16:47;19.17;;;15.07;;
10463;SDS011;5279;42.048;24.638;2024-02-21T00:19:15;19.47;;;15.37;;
10463;SDS011;5279;42.048;24.638;2024-02-21T00:21:42;19.27;;;16.23;;
10463;SDS011;5279;42.048;24.638;2024-02-21T00:24:09;19.57;;;15.77;;
10463;SDS011;5279;42.048;24.638;2024-02-21T00:26:35;18.50;;;15.20;;
10463;SDS011;5279;42.048;24.638;2024-02-21T00:29:02;21.33;;;16.67;;
10463;SDS011;5279;42.048;24.638;2024-02-21T00:31:29;19.17;;;15.40;;
10463;SDS011;5279;42.048;24.638;2024-02-21T00:33:55;19.73;;;15.80;;
10463;SDS011;5279;42.048;24.638;2024-02-21T00:36:24;21.03;;;16.43;;
10463;SDS011;5279;42.048;24.638;2024-02-21T00:38:50;21.33;;;14.77;;
10463;SDS011;5279;42.048;24.638;2024-02-21T00:41:17;19.60;;;15.90;;
10463;SDS011;5279;42.048;24.638;2024-02-21T00:43:44;18.13;;;15.30;;
10463;SDS011;5279;42.048;24.638;2024-02-21T00:46:12;17.83;;;14.27;;
10463;SDS011;5279;42.048;24.638;2024-02-21T00:48:38;18.37;;;14.77;;
10463;SDS011;5279;42.048;24.638;2024-02-21T00:51:05;17.77;;;13.97;;
10463;SDS011;5279;42.048;24.638;2024-02-21T00:53:33;19.53;;;14.93;;
10463;SDS011;5279;42.048;24.638;2024-02-21T00:56:03;21.07;;;14.97;;
10463;SDS011;5279;42.048;24.638;2024-02-21T00:58:30;17.97;;;14.83;;
10463;SDS011;5279;42.048;24.638;2024-02-21T01:00:57;20.63;;;15.27;;
10463;SDS011;5279;42.048;24.638;2024-02-21T01:03:24;20.93;;;16.90;;
10463;SDS011;5279;42.048;24.638;2024-02-21T01:05:51;20.20;;;15.20;;
10463;SDS011;5279;42.048;24.638;2024-02-21T01:08:18;16.63;;;14.13;;
10463;SDS011;5279;42.048;24.638;2024-02-21T01:10:46;20.50;;;14.53;;
10463;SDS011;5279;42.048;24.638;2024-02-21T01:13:12;23.40;;;18.40;;
10463;SDS011;5279;42.048;24.638;2024-02-21T01:15:39;24.23;;;18.30;;
10463;SDS011;5279;42.048;24.638;2024-02-21T01:18:06;25.87;;;19.37;;
10463;SDS011;5279;42.048;24.638;2024-02-21T01:20:33;20.53;;;16.67;;
10463;SDS011;5279;42.048;24.638;2024-02-21T01:22:59;23.70;;;18.70;;
10463;SDS011;5279;42.048;24.638;2024-02-21T01:25:26;27.20;;;17.13;;
10463;SDS011;5279;42.048;24.638;2024-02-21T01:27:54;24.43;;;19.13;;
10463;SDS011;5279;42.048;24.638;2024-02-21T01:30:21;25.50;;;19.20;;
10463;SDS011;5279;42.048;24.638;2024-02-21T01:32:48;24.63;;;18.77;;
10463;SDS011;5279;42.048;24.638;2024-02-21T01:35:15;21.23;;;16.20;;
10463;SDS011;5279;42.048;24.638;2024-02-21T01:37:42;23.53;;;17.60;;
10463;SDS011;5279;42.048;24.638;2024-02-21T01:40:09;24.10;;;17.53;;
10463;SDS011;5279;42.048;24.638;2024-02-21T01:42:37;22.70;;;17.10;;
10463;SDS011;5279;42.048;24.638;2024-02-21T01:45:06;23.00;;;16.80;;
10463;SDS011;5279;42.048;24.638;2024-02-21T01:47:33;20.77;;;16.53;;
10463;SDS011;5279;42.048;24.638;2024-02-21T01:50:01;24.43;;;17.67;;
10463;SDS011;5279;42.048;24.638;2024-02-21T01:52:28;22.93;;;17.03;;
10463;SDS011;5279;42.048;24.638;2024-02-21T01:54:55;22.33;;;17.00;;
10463;SDS011;5279;42.048;24.638;2024-02-21T01:57:23;21.23;;;16.90;;
10463;SDS011;5279;42.048;24.638;2024-02-21T01:59:51;21.47;;;16.97;;
10463;SDS011;5279;42.048;24.638;2024-02-21T02:02:19;21.00;;;15.83;;
10463;SDS011;5279;42.048;24.638;2024-02-21T02:04:47;23.03;;;16.47;;
10463;SDS011;5279;42.048;24.638;2024-02-21T02:07:14;20.53;;;16.50;;
10463;SDS011;5279;42.048;24.638;2024-02-21T02:09:41;23.57;;;17.90;;
10463;SDS011;5279;42.048;24.638;2024-02-21T02:12:08;21.23;;;16.33;;
10463;SDS011;5279;42.048;24.638;2024-02-21T02:14:35;19.83;;;16.73;;
10463;SDS011;5279;42.048;24.638;2024-02-21T02:17:02;21.93;;;16.97;;
10463;SDS011;5279;42.048;24.638;2024-02-21T02:19:30;20.73;;;16.10;;
10463;SDS011;5279;42.048;24.638;2024-02-21T02:21:59;18.63;;;14.20;;
10463;SDS011;5279;42.048;24.638;2024-02-21T02:24:35;21.60;;;16.43;;
10463;SDS011;5279;42.048;24.638;2024-02-21T02:27:02;23.27;;;17.70;;
10463;SDS011;5279;42.048;24.638;2024-02-21T02:29:28;19.83;;;16.57;;
10463;SDS011;5279;42.048;24.638;2024-02-21T02:31:58;19.13;;;16.27;;
10463;SDS011;5279;42.048;24.638;2024-02-21T02:34:25;20.77;;;14.70;;
10463;SDS011;5279;42.048;24.638;2024-02-21T02:36:51;17.93;;;14.73;;
10463;SDS011;5279;42.048;24.638;2024-02-21T02:39:19;20.87;;;15.37;;
10463;SDS011;5279;42.048;24.638;2024-02-21T02:41:47;17.83;;;14.33;;
10463;SDS011;5279;42.048;24.638;2024-02-21T02:44:14;22.97;;;16.23;;
10463;SDS011;5279;42.048;24.638;2024-02-21T02:46:41;17.40;;;14.47;;
10463;SDS011;5279;42.048;24.638;2024-02-21T02:49:08;18.63;;;14.23;;
10463;SDS011;5279;42.048;24.638;2024-02-21T02:51:35;19.33;;;14.67;;
10463;SDS011;5279;42.048;24.638;2024-02-21T02:54:02;18.60;;;13.77;;
10463;SDS011;5279;42.048;24.638;2024-02-21T02:56:29;19.00;;;14.57;;
10463;SDS011;5279;42.048;24.638;2024-02-21T02:58:57;19.80;;;15.57;;
10463;SDS011;5279;42.048;24.638;2024-02-21T03:01:24;18.37;;;14.20;;
10463;SDS011;5279;42.048;24.638;2024-02-21T03:03:51;18.80;;;14.43;;
10463;SDS011;5279;42.048;24.638;2024-02-21T03:06:18;17.63;;;14.10;;
10463;SDS011;5279;42.048;24.638;2024-02-21T03:08:44;17.73;;;15.10;;
10463;SDS011;5279;42.048;24.638;2024-02-21T03:11:11;18.53;;;14.83;;
10463;SDS011;5279;42.048;24.638;2024-02-21T03:13:38;18.23;;;15.17;;
10463;SDS011;5279;42.048;24.638;2024-02-21T03:16:06;16.87;;;14.17;;
10463;SDS011;5279;42.048;24.638;2024-02-21T03:18:33;17.23;;;14.77;;
10463;SDS011;5279;42.048;24.638;2024-02-21T03:21:00;20.53;;;14.70;;
10463;SDS011;5279;42.048;24.638;2024-02-21T03:23:27;16.70;;;13.70;;
10463;SDS011;5279;42.048;24.638;2024-02-21T03:25:54;15.47;;;13.10;;
10463;SDS011;5279;42.048;24.638;2024-02-21T03:28:20;18.03;;;13.90;;
10463;SDS011;5279;42.048;24.638;2024-02-21T03:30:47;16.07;;;12.40;;
10463;SDS011;5279;42.048;24.638;2024-02-21T03:33:15;17.70;;;14.23;;
10463;SDS011;5279;42.048;24.638;2024-02-21T03:35:42;15.97;;;13.33;;
10463;SDS011;5279;42.048;24.638;2024-02-21T03:38:09;17.00;;;14.70;;
10463;SDS011;5279;42.048;24.638;2024-02-21T03:40:35;17.33;;;13.27;;
10463;SDS011;5279;42.048;24.638;2024-02-21T03:43:02;17.43;;;14.10;;
10463;SDS011;5279;42.048;24.638;2024-02-21T03:45:29;15.73;;;13.07;;
10463;SDS011;5279;42.048;24.638;2024-02-21T03:47:56;17.03;;;13.87;;
10463;SDS011;5279;42.048;24.638;2024-02-21T03:50:26;17.70;;;12.30;;
10463;SDS011;5279;42.048;24.638;2024-02-21T03:52:52;16.80;;;13.53;;
10463;SDS011;5279;42.048;24.638;2024-02-21T03:55:19;15.67;;;13.37;;
10463;SDS011;5279;42.048;24.638;2024-02-21T03:57:47;15.90;;;13.10;;
10463;SDS011;5279;42.048;24.638;2024-02-21T04:00:14;17.97;;;14.63;;
10463;SDS011;5279;42.048;24.638;2024-02-21T04:02:41;17.43;;;13.87;;
10463;SDS011;5279;42.048;24.638;2024-02-21T04:05:08;18.60;;;14.37;;
10463;SDS011;5279;42.048;24.638;2024-02-21T04:07:37;16.10;;;14.07;;
10463;SDS011;5279;42.048;24.638;2024-02-21T04:10:04;16.40;;;13.43;;
10463;SDS011;5279;42.048;24.638;2024-02-21T04:12:31;15.83;;;13.03;;
10463;SDS011;5279;42.048;24.638;2024-02-21T04:14:58;17.47;;;13.40;;
10463;SDS011;5279;42.048;24.638;2024-02-21T04:17:25;17.57;;;13.37;;
10463;SDS011;5279;42.048;24.638;2024-02-21T04:19:52;16.60;;;13.20;;
10463;SDS011;5279;42.048;24.638;2024-02-21T04:22:30;16.07;;;13.00;;
10463;SDS011;5279;42.048;24.638;2024-02-21T04:24:58;15.50;;;12.70;;
10463;SDS011;5279;42.048;24.638;2024-02-21T04:27:25;15.43;;;12.83;;
10463;SDS011;5279;42.048;24.638;2024-02-21T04:29:53;14.83;;;12.73;;
10463;SDS011;5279;42.048;24.638;2024-02-21T04:32:19;16.37;;;12.83;;
10463;SDS011;5279;42.048;24.638;2024-02-21T04:34:46;16.50;;;12.57;;
10463;SDS011;5279;42.048;24.638;2024-02-21T04:37:13;14.13;;;12.37;;
10463;SDS011;5279;42.048;24.638;2024-02-21T04:39:39;14.33;;;12.07;;
10463;SDS011;5279;42.048;24.638;2024-02-21T04:42:08;15.13;;;11.83;;
10463;SDS011;5279;42.048;24.638;2024-02-21T04:44:34;13.90;;;11.97;;
10463;SDS011;5279;42.048;24.638;2024-02-21T04:47:01;14.83;;;12.60;;
10463;SDS011;5279;42.048;24.638;2024-02-21T04:49:28;16.20;;;12.13;;
10463;SDS011;5279;42.048;24.638;2024-02-21T04:51:55;13.93;;;12.33;;
10463;SDS011;5279;42.048;24.638;2024-02-21T04:54:22;14.87;;;12.13;;
10463;SDS011;5279;42.048;24.638;2024-02-21T04:56:49;14.80;;;12.27;;
10463;SDS011;5279;42.048;24.638;2024-02-21T04:59:17;13.20;;;11.70;;
10463;SDS011;5279;42.048;24.638;2024-02-21T05:01:44;18.13;;;12.97;;
10463;SDS011;5279;42.048;24.638;2024-02-21T05:04:11;15.43;;;12.30;;
10463;SDS011;5279;42.048;24.638;2024-02-21T05:06:38;13.03;;;11.43;;
10463;SDS011;5279;42.048;24.638;2024-02-21T05:09:05;13.07;;;11.43;;
10463;SDS011;5279;42.048;24.638;2024-02-21T05:11:32;12.90;;;11.33;;
10463;SDS011;5279;42.048;24.638;2024-02-21T05:13:59;12.23;;;11.03;;
10463;SDS011;5279;42.048;24.638;2024-02-21T05:16:27;12.50;;;10.60;;
10463;SDS011;5279;42.048;24.638;2024-02-21T05:18:53;13.73;;;11.23;;
10463;SDS011;5279;42.048;24.638;2024-02-21T05:21:22;13.67;;;11.33;;
10463;SDS011;5279;42.048;24.638;2024-02-21T05:23:49;14.07;;;11.80;;
10463;SDS011;5279;42.048;24.638;2024-02-21T05:26:19;13.03;;;11.33;;
10463;SDS011;5279;42.048;24.638;2024-02-21T05:28:47;12.97;;;11.63;;
10463;SDS011;5279;42.048;24.638;2024-02-21T05:31:14;13.43;;;11.37;;
10463;SDS011;5279;42.048;24.638;2024-02-21T05:33:42;12.43;;;10.97;;
10463;SDS011;5279;42.048;24.638;2024-02-21T05:36:09;14.03;;;12.53;;
10463;SDS011;5279;42.048;24.638;2024-02-21T05:38:36;13.20;;;11.37;;
10463;SDS011;5279;42.048;24.638;2024-02-21T05:41:03;12.60;;;11.23;;
10463;SDS011;5279;42.048;24.638;2024-02-21T05:43:36;12.93;;;10.80;;
10463;SDS011;5279;42.048;24.638;2024-02-21T05:46:03;13.17;;;11.40;;
10463;SDS011;5279;42.048;24.638;2024-02-21T05:48:30;15.33;;;12.20;;
10463;SDS011;5279;42.048;24.638;2024-02-21T05:50:58;12.00;;;10.00;;
10463;SDS011;5279;42.048;24.638;2024-02-21T05:53:27;13.53;;;10.50;;
10463;SDS011;5279;42.048;24.638;2024-02-21T05:55:54;10.83;;;9.03;;
10463;SDS011;5279;42.048;24.638;2024-02-21T05:58:21;9.87;;;8.83;;
10463;SDS011;5279;42.048;24.638;2024-02-21T06:00:48;11.73;;;8.70;;
10463;SDS011;5279;42.048;24.638;2024-02-21T06:03:14;9.97;;;8.47;;
10463;SDS011;5279;42.048;24.638;2024-02-21T06:05:41;10.13;;;8.87;;
10463;SDS011;5279;42.048;24.638;2024-02-21T06:08:09;11.13;;;9.30;;
10463;SDS011;5279;42.048;24.638;2024-02-21T06:10:36;11.67;;;9.10;;
10463;SDS011;5279;42.048;24.638;2024-02-21T06:13:03;10.37;;;9.00;;
10463;SDS011;5279;42.048;24.638;2024-02-21T06:15:30;12.27;;;10.00;;
10463;SDS011;5279;42.048;24.638;2024-02-21T06:17:56;10.63;;;9.20;;
10463;SDS011;5279;42.048;24.638;2024-02-21T06:20:23;11.33;;;10.13;;
10463;SDS011;5279;42.048;24.638;2024-02-21T06:22:50;11.27;;;9.37;;
10463;SDS011;5279;42.048;24.638;2024-02-21T06:25:18;10.67;;;9.57;;
10463;SDS011;5279;42.048;24.638;2024-02-21T06:27:45;10.53;;;9.50;;
10463;SDS011;5279;42.048;24.638;2024-02-21T06:30:12;10.10;;;8.97;;
10463;SDS011;5279;42.048;24.638;2024-02-21T06:32:39;12.07;;;8.13;;
10463;SDS011;5279;42.048;24.638;2024-02-21T06:35:06;10.50;;;9.10;;
10463;SDS011;5279;42.048;24.638;2024-02-21T06:37:32;8.97;;;7.53;;
10463;SDS011;5279;42.048;24.638;2024-02-21T06:39:59;8.10;;;7.30;;
10463;SDS011;5279;42.048;24.638;2024-02-21T06:42:27;8.20;;;7.40;;
10463;SDS011;5279;42.048;24.638;2024-02-21T06:44:54;6.53;;;5.90;;
10463;SDS011;5279;42.048;24.638;2024-02-21T06:47:21;7.80;;;7.00;;
10463;SDS011;5279;42.048;24.638;2024-02-21T06:49:48;6.53;;;5.90;;
10463;SDS011;5279;42.048;24.638;2024-02-21T06:52:17;6.93;;;5.50;;
10463;SDS011;5279;42.048;24.638;2024-02-21T06:54:45;5.73;;;5.17;;
10463;SDS011;5279;42.048;24.638;2024-02-21T06:57:12;6.47;;;5.80;;
10463;SDS011;5279;42.048;24.638;2024-02-21T06:59:40;6.70;;;5.63;;
10463;SDS011;5279;42.048;24.638;2024-02-21T07:02:07;7.03;;;6.07;;
10463;SDS011;5279;42.048;24.638;2024-02-21T07:04:43;8.07;;;5.87;;
10463;SDS011;5279;42.048;24.638;2024-02-21T07:07:10;6.13;;;5.53;;
10463;SDS011;5279;42.048;24.638;2024-02-21T07:09:37;6.80;;;5.93;;
10463;SDS011;5279;42.048;24.638;2024-02-21T07:12:04;7.03;;;5.80;;
10463;SDS011;5279;42.048;24.638;2024-02-21T07:14:32;6.30;;;5.70;;
10463;SDS011;5279;42.048;24.638;2024-02-21T07:17:00;6.27;;;5.67;;
10463;SDS011;5279;42.048;24.638;2024-02-21T07:19:27;6.30;;;5.67;;
10463;SDS011;5279;42.048;24.638;2024-02-21T07:21:54;6.53;;;5.93;;
10463;SDS011;5279;42.048;24.638;2024-02-21T07:24:21;6.53;;;5.93;;
10463;SDS011;5279;42.048;24.638;2024-02-21T07:26:48;7.20;;;6.00;;
10463;SDS011;5279;42.048;24.638;2024-02-21T07:29:15;6.13;;;5.53;;
10463;SDS011;5279;42.048;24.638;2024-02-21T07:31:42;6.30;;;5.60;;
10463;SDS011;5279;42.048;24.638;2024-02-21T07:34:10;6.53;;;5.10;;
10463;SDS011;5279;42.048;24.638;2024-02-21T07:36:37;5.90;;;5.30;;
10463;SDS011;5279;42.048;24.638;2024-02-21T07:39:09;6.33;;;5.73;;
10463;SDS011;5279;42.048;24.638;2024-02-21T07:41:36;5.30;;;4.80;;
10463;SDS011;5279;42.048;24.638;2024-02-21T07:44:04;5.63;;;4.87;;
10463;SDS011;5279;42.048;24.638;2024-02-21T07:46:31;5.10;;;4.60;;
10463;SDS011;5279;42.048;24.638;2024-02-21T07:48:57;5.20;;;4.70;;
10463;SDS011;5279;42.048;24.638;2024-02-21T07:51:28;5.13;;;4.63;;
10463;SDS011;5279;42.048;24.638;2024-02-21T07:53:55;5.30;;;4.80;;
10463;SDS011;5279;42.048;24.638;2024-02-21T07:56:22;5.40;;;4.90;;
10463;SDS011;5279;42.048;24.638;2024-02-21T07:58:48;5.40;;;4.90;;
10463;SDS011;5279;42.048;24.638;2024-02-21T08:01:18;5.23;;;4.73;;
10463;SDS011;5279;42.048;24.638;2024-02-21T08:03:46;5.90;;;5.30;;
10463;SDS011;5279;42.048;24.638;2024-02-21T08:06:12;5.70;;;4.37;;
10463;SDS011;5279;42.048;24.638;2024-02-21T08:08:41;6.33;;;5.73;;
10463;SDS011;5279;42.048;24.638;2024-02-21T08:11:08;5.87;;;5.27;;
10463;SDS011;5279;42.048;24.638;2024-02-21T08:13:35;8.47;;;5.47;;
10463;SDS011;5279;42.048;24.638;2024-02-21T08:16:01;5.97;;;5.47;;
10463;SDS011;5279;42.048;24.638;2024-02-21T08:18:28;5.23;;;4.77;;
10463;SDS011;5279;42.048;24.638;2024-02-21T08:20:55;6.37;;;5.30;;
10463;SDS011;5279;42.048;24.638;2024-02-21T08:23:23;5.33;;;4.80;;
10463;SDS011;5279;42.048;24.638;2024-02-21T08:25:51;5.00;;;4.50;;
10463;SDS011;5279;42.048;24.638;2024-02-21T08:28:18;5.20;;;4.60;;
10463;SDS011;5279;42.048;24.638;2024-02-21T08:30:45;6.07;;;5.43;;
10463;SDS011;5279;42.048;24.638;2024-02-21T08:33:13;5.47;;;4.93;;
10463;SDS011;5279;42.048;24.638;2024-02-21T08:35:41;5.50;;;4.67;;
10463;SDS011;5279;42.048;24.638;2024-02-21T08:38:08;5.10;;;4.70;;
10463;SDS011;5279;42.048;24.638;2024-02-21T08:40:35;5.03;;;4.53;;
10463;SDS011;5279;42.048;24.638;2024-02-21T08:43:03;4.90;;;4.40;;
10463;SDS011;5279;42.048;24.638;2024-02-21T08:45:30;5.50;;;5.00;;
10463;SDS011;5279;42.048;24.638;2024-02-21T08:47:57;5.37;;;4.87;;
10463;SDS011;5279;42.048;24.638;2024-02-21T08:50:23;5.20;;;4.70;;
10463;SDS011;5279;42.048;24.638;2024-02-21T08:52:50;5.40;;;4.47;;
10463;SDS011;5279;42.048;24.638;2024-02-21T08:55:17;4.57;;;4.17;;
10463;SDS011;5279;42.048;24.638;2024-02-21T08:57:44;5.57;;;4.70;;
10463;SDS011;5279;42.048;24.638;2024-02-21T09:00:13;5.23;;;4.73;;
10463;SDS011;5279;42.048;24.638;2024-02-21T09:02:41;4.90;;;4.40;;
10463;SDS011;5279;42.048;24.638;2024-02-21T09:05:08;5.13;;;4.63;;
10463;SDS011;5279;42.048;24.638;2024-02-21T09:07:35;5.37;;;4.87;;
10463;SDS011;5279;42.048;24.638;2024-02-21T09:10:02;5.87;;;5.13;;
10463;SDS011;5279;42.048;24.638;2024-02-21T09:12:29;6.37;;;4.93;;
10463;SDS011;5279;42.048;24.638;2024-02-21T09:14:56;5.57;;;5.07;;
10463;SDS011;5279;42.048;24.638;2024-02-21T09:17:24;10.00;;;5.20;;
10463;SDS011;5279;42.048;24.638;2024-02-21T09:19:54;5.17;;;4.67;;
10463;SDS011;5279;42.048;24.638;2024-02-21T09:22:24;5.43;;;4.93;;
10463;SDS011;5279;42.048;24.638;2024-02-21T09:24:50;5.60;;;5.10;;
10463;SDS011;5279;42.048;24.638;2024-02-21T09:27:17;6.33;;;5.03;;
10463;SDS011;5279;42.048;24.638;2024-02-21T09:29:44;4.00;;;3.70;;
10463;SDS011;5279;42.048;24.638;2024-02-21T09:32:11;3.50;;;3.20;;
10463;SDS011;5279;42.048;24.638;2024-02-21T09:34:39;3.07;;;2.87;;
10463;SDS011;5279;42.048;24.638;2024-02-21T09:37:06;3.30;;;3.00;;
10463;SDS011;5279;42.048;24.638;2024-02-21T09:39:33;3.30;;;3.00;;
10463;SDS011;5279;42.048;24.638;2024-02-21T09:42:03;3.60;;;3.30;;
10463;SDS011;5279;42.048;24.638;2024-02-21T09:44:33;3.37;;;3.07;;
10463;SDS011;5279;42.048;24.638;2024-02-21T09:47:03;3.70;;;2.80;;
10463;SDS011;5279;42.048;24.638;2024-02-21T09:49:33;3.40;;;3.10;;
10463;SDS011;5279;42.048;24.638;2024-02-21T09:52:04;3.40;;;3.10;;
10463;SDS011;5279;42.048;24.638;2024-02-21T09:54:32;3.47;;;3.03;;
10463;SDS011;5279;42.048;24.638;2024-02-21T09:56:59;3.50;;;3.20;;
10463;SDS011;5279;42.048;24.638;2024-02-21T09:59:26;4.33;;;4.00;;
10463;SDS011;5279;42.048;24.638;2024-02-21T10:01:54;4.30;;;3.90;;
10463;SDS011;5279;42.048;24.638;2024-02-21T10:04:21;4.70;;;3.40;;
10463;SDS011;5279;42.048;24.638;2024-02-21T10:06:48;4.40;;;4.00;;
10463;SDS011;5279;42.048;24.638;2024-02-21T10:09:23;4.30;;;3.90;;
10463;SDS011;5279;42.048;24.638;2024-02-21T10:11:52;3.80;;;3.50;;
10463;SDS011;5279;42.048;24.638;2024-02-21T10:14:19;2.93;;;2.73;;
10463;SDS011;5279;42.048;24.638;2024-02-21T10:16:47;3.30;;;3.03;;
10463;SDS011;5279;42.048;24.638;2024-02-21T10:19:17;3.03;;;2.83;;
10463;SDS011;5279;42.048;24.638;2024-02-21T10:21:57;3.57;;;3.37;;
10463;SDS011;5279;42.048;24.638;2024-02-21T10:24:27;3.77;;;3.40;;
10463;SDS011;5279;42.048;24.638;2024-02-21T10:26:58;2.80;;;2.60;;
10463;SDS011;5279;42.048;24.638;2024-02-21T10:29:29;3.77;;;3.47;;
10463;SDS011;5279;42.048;24.638;2024-02-21T10:32:05;4.30;;;3.93;;
10463;SDS011;5279;42.048;24.638;2024-02-21T10:34:33;3.83;;;3.47;;
10463;SDS011;5279;42.048;24.638;2024-02-21T10:37:00;3.37;;;3.07;;
10463;SDS011;5279;42.048;24.638;2024-02-21T10:39:30;3.63;;;3.33;;
10463;SDS011;5279;42.048;24.638;2024-02-21T10:41:59;4.13;;;3.73;;
10463;SDS011;5279;42.048;24.638;2024-02-21T10:44:28;3.47;;;3.17;;
10463;SDS011;5279;42.048;24.638;2024-02-21T10:46:56;3.60;;;3.30;;
10463;SDS011;5279;42.048;24.638;2024-02-21T10:49:23;4.70;;;4.30;;
10463;SDS011;5279;42.048;24.638;2024-02-21T10:51:53;4.33;;;3.93;;
10463;SDS011;5279;42.048;24.638;2024-02-21T10:54:36;3.53;;;3.23;;
10463;SDS011;5279;42.048;24.638;2024-02-21T10:57:10;4.03;;;3.50;;
10463;SDS011;5279;42.048;24.638;2024-02-21T10:59:39;4.50;;;3.73;;
10463;SDS011;5279;42.048;24.638;2024-02-21T11:02:09;4.30;;;3.90;;
10463;SDS011;5279;42.048;24.638;2024-02-21T11:04:36;3.20;;;3.00;;
10463;SDS011;5279;42.048;24.638;2024-02-21T11:07:03;3.10;;;2.90;;
10463;SDS011;5279;42.048;24.638;2024-02-21T11:09:31;3.73;;;2.70;;
10463;SDS011;5279;42.048;24.638;2024-02-21T11:12:01;3.37;;;3.07;;
10463;SDS011;5279;42.048;24.638;2024-02-21T11:14:37;3.03;;;2.83;;
10463;SDS011;5279;42.048;24.638;2024-02-21T11:17:14;3.20;;;3.00;;
10463;SDS011;5279;42.048;24.638;2024-02-21T11:19:41;3.30;;;3.00;;
10463;SDS011;5279;42.048;24.638;2024-02-21T11:22:13;2.83;;;2.63;;
10463;SDS011;5279;42.048;24.638;2024-02-21T11:24:41;3.30;;;3.00;;
10463;SDS011;5279;42.048;24.638;2024-02-21T11:27:11;2.87;;;2.67;;
10463;SDS011;5279;42.048;24.638;2024-02-21T11:29:42;2.80;;;2.60;;
10463;SDS011;5279;42.048;24.638;2024-02-21T11:32:09;3.07;;;2.87;;
10463;SDS011;5279;42.048;24.638;2024-02-21T11:34:37;3.50;;;2.97;;
10463;SDS011;5279;42.048;24.638;2024-02-21T11:37:12;3.20;;;3.00;;
10463;SDS011;5279;42.048;24.638;2024-02-21T11:39:41;5.27;;;4.77;;
10463;SDS011;5279;42.048;24.638;2024-02-21T11:42:09;4.30;;;3.90;;
10463;SDS011;5279;42.048;24.638;2024-02-21T11:44:38;4.13;;;3.80;;
10463;SDS011;5279;42.048;24.638;2024-02-21T11:47:07;4.20;;;3.80;;
10463;SDS011;5279;42.048;24.638;2024-02-21T11:49:36;4.03;;;3.63;;
10463;SDS011;5279;42.048;24.638;2024-02-21T11:52:04;3.13;;;2.88;;
10463;SDS011;5279;42.048;24.638;2024-02-21T11:54:32;2.90;;;2.70;;
10463;SDS011;5279;42.048;24.638;2024-02-21T11:56:59;3.58;;;3.38;;
10463;SDS011;5279;42.048;24.638;2024-02-21T12:02:52;2.70;;;2.50;;
10463;SDS011;5279;42.048;24.638;2024-02-21T12:05:20;4.35;;;3.08;;
10463;SDS011;5279;42.048;24.638;2024-02-21T12:07:47;2.90;;;2.70;;
10463;SDS011;5279;42.048;24.638;2024-02-21T12:10:14;3.80;;;3.50;;
10463;SDS011;5279;42.048;24.638;2024-02-21T12:12:41;3.37;;;3.07;;
10463;SDS011;5279;42.048;24.638;2024-02-21T12:15:08;2.90;;;2.70;;
10463;SDS011;5279;42.048;24.638;2024-02-21T12:17:34;2.80;;;2.60;;
10463;SDS011;5279;42.048;24.638;2024-02-21T12:20:03;2.80;;;2.60;;
10463;SDS011;5279;42.048;24.638;2024-02-21T12:22:34;2.80;;;2.60;;
10463;SDS011;5279;42.048;24.638;2024-02-21T12:25:02;2.72;;;2.53;;
10463;SDS011;5279;42.048;24.638;2024-02-21T12:27:46;3.00;;;2.80;;
10463;SDS011;5279;42.048;24.638;2024-02-21T12:30:14;2.83;;;2.63;;
10463;SDS011;5279;42.048;24.638;2024-02-21T12:32:41;2.65;;;2.45;;
10463;SDS011;5279;42.048;24.638;2024-02-21T12:35:09;2.30;;;2.15;;
10463;SDS011;5279;42.048;24.638;2024-02-21T12:37:35;2.40;;;2.20;;
10463;SDS011;5279;42.048;24.638;2024-02-21T12:40:03;2.88;;;2.67;;
10463;SDS011;5279;42.048;24.638;2024-02-21T12:42:32;3.10;;;2.80;;
10463;SDS011;5279;42.048;24.638;2024-02-21T12:44:59;2.55;;;2.35;;
10463;SDS011;5279;42.048;24.638;2024-02-21T12:47:26;3.25;;;2.45;;
10463;SDS011;5279;42.048;24.638;2024-02-21T12:49:52;3.05;;;2.42;;
10463;SDS011;5279;42.048;24.638;2024-02-21T12:52:21;2.30;;;2.20;;
10463;SDS011;5279;42.048;24.638;2024-02-21T12:54:47;2.67;;;2.47;;
10463;SDS011;5279;42.048;24.638;2024-02-21T12:57:15;2.53;;;2.38;;
10463;SDS011;5279;42.048;24.638;2024-02-21T12:59:42;3.28;;;2.28;;
10463;SDS011;5279;42.048;24.638;2024-02-21T13:02:09;2.55;;;2.35;;
10463;SDS011;5279;42.048;24.638;2024-02-21T13:04:36;2.00;;;1.90;;
10463;SDS011;5279;42.048;24.638;2024-02-21T13:07:05;2.72;;;2.25;;
10463;SDS011;5279;42.048;24.638;2024-02-21T13:09:34;1.98;;;1.88;;
10463;SDS011;5279;42.048;24.638;2024-02-21T13:12:01;1.80;;;1.70;;
10463;SDS011;5279;42.048;24.638;2024-02-21T13:14:28;1.92;;;1.70;;
10463;SDS011;5279;42.048;24.638;2024-02-21T13:16:55;1.63;;;1.52;;
10463;SDS011;5279;42.048;24.638;2024-02-21T13:19:22;3.42;;;1.58;;
10463;SDS011;5279;42.048;24.638;2024-02-21T13:22:07;2.00;;;1.90;;
10463;SDS011;5279;42.048;24.638;2024-02-21T13:24:35;2.22;;;1.70;;
10463;SDS011;5279;42.048;24.638;2024-02-21T13:27:02;1.70;;;1.60;;
10463;SDS011;5279;42.048;24.638;2024-02-21T13:29:29;2.35;;;1.77;;
10463;SDS011;5279;42.048;24.638;2024-02-21T13:31:56;1.98;;;1.80;;
10463;SDS011;5279;42.048;24.638;2024-02-21T13:34:23;1.98;;;1.88;;
10463;SDS011;5279;42.048;24.638;2024-02-21T13:36:50;2.30;;;2.15;;
10463;SDS011;5279;42.048;24.638;2024-02-21T13:39:17;2.00;;;1.90;;
10463;SDS011;5279;42.048;24.638;2024-02-21T13:41:45;2.03;;;1.92;;
10463;SDS011;5279;42.048;24.638;2024-02-21T13:44:12;2.00;;;1.90;;
10463;SDS011;5279;42.048;24.638;2024-02-21T13:46:39;2.23;;;2.03;;
10463;SDS011;5279;42.048;24.638;2024-02-21T13:49:06;2.30;;;2.20;;
10463;SDS011;5279;42.048;24.638;2024-02-21T13:51:33;2.33;;;2.13;;
10463;SDS011;5279;42.048;24.638;2024-02-21T13:54:01;2.47;;;2.27;;
10463;SDS011;5279;42.048;24.638;2024-02-21T13:56:28;2.67;;;2.47;;
10463;SDS011;5279;42.048;24.638;2024-02-21T13:58:57;2.60;;;2.40;;
10463;SDS011;5279;42.048;24.638;2024-02-21T14:01:25;3.43;;;2.50;;
10463;SDS011;5279;42.048;24.638;2024-02-21T14:03:52;2.40;;;2.20;;
10463;SDS011;5279;42.048;24.638;2024-02-21T14:06:18;2.80;;;2.60;;
10463;SDS011;5279;42.048;24.638;2024-02-21T14:08:45;2.27;;;2.17;;
10463;SDS011;5279;42.048;24.638;2024-02-21T14:11:12;2.10;;;2.00;;
10463;SDS011;5279;42.048;24.638;2024-02-21T14:13:39;2.57;;;2.37;;
10463;SDS011;5279;42.048;24.638;2024-02-21T14:16:10;1.97;;;1.87;;
10463;SDS011;5279;42.048;24.638;2024-02-21T14:18:38;2.53;;;2.33;;
10463;SDS011;5279;42.048;24.638;2024-02-21T14:21:07;2.70;;;2.50;;
10463;SDS011;5279;42.048;24.638;2024-02-21T14:23:35;2.80;;;2.60;;
10463;SDS011;5279;42.048;24.638;2024-02-21T14:26:02;2.77;;;2.57;;
10463;SDS011;5279;42.048;24.638;2024-02-21T14:28:29;3.30;;;2.30;;
10463;SDS011;5279;42.048;24.638;2024-02-21T14:30:56;2.40;;;2.20;;
10463;SDS011;5279;42.048;24.638;2024-02-21T14:33:26;2.50;;;2.30;;
10463;SDS011;5279;42.048;24.638;2024-02-21T14:35:54;3.27;;;2.67;;
10463;SDS011;5279;42.048;24.638;2024-02-21T14:38:20;2.60;;;2.40;;
10463;SDS011;5279;42.048;24.638;2024-02-21T14:40:47;2.60;;;2.40;;
10463;SDS011;5279;42.048;24.638;2024-02-21T14:43:14;2.40;;;2.20;;